createdAt,value
2022-12-10T00:01:55.589Z,98696.67
2022-12-10T00:04:23.613Z,98704.14
2022-12-10T00:06:51.420Z,98696.04
2022-12-10T00:09:21.547Z,98704.92
2022-12-10T00:11:49.479Z,98701.33
2022-12-10T00:14:18.198Z,98714.45
2022-12-10T00:16:46.175Z,98714.34
2022-12-10T00:19:14.108Z,98715.55
2022-12-10T00:21:43.948Z,98713.00
2022-12-10T00:24:12.323Z,98699.00
2022-12-10T00:26:41.116Z,98711.84
2022-12-10T00:29:12.472Z,98713.83
2022-12-10T00:31:41.408Z,98710.11
2022-12-10T00:34:11.561Z,98711.93
2022-12-10T00:36:47.991Z,98710.39
2022-12-10T00:39:18.517Z,98716.26
2022-12-10T00:41:46.993Z,98717.09
2022-12-10T00:44:16.361Z,98720.52
2022-12-10T00:46:44.581Z,98729.52
2022-12-10T00:49:13.204Z,98733.26
2022-12-10T00:51:41.534Z,98735.80
2022-12-10T00:54:09.687Z,98740.00
2022-12-10T00:56:38.070Z,98741.27
2022-12-10T00:59:06.022Z,98744.32
2022-12-10T01:01:40.197Z,98743.98
2022-12-10T01:04:12.596Z,98748.75
2022-12-10T01:06:53.597Z,98755.00
2022-12-10T01:09:26.821Z,98753.52
2022-12-10T01:11:57.146Z,98753.42
2022-12-10T01:14:29.534Z,98751.77
2022-12-10T01:17:00.766Z,98749.48
2022-12-10T01:19:28.664Z,98741.30
2022-12-10T01:21:57.909Z,98741.95
2022-12-10T01:24:28.234Z,98739.44
2022-12-10T01:26:56.257Z,98745.05
2022-12-10T01:29:24.371Z,98740.94
2022-12-10T01:31:54.604Z,98735.61
2022-12-10T01:34:23.301Z,98728.42
2022-12-10T01:36:53.962Z,98727.85
2022-12-10T01:39:23.784Z,98725.29
2022-12-10T01:41:57.683Z,98723.48
2022-12-10T01:44:25.441Z,98722.17
2022-12-10T01:46:55.587Z,98718.34
2022-12-10T01:49:37.357Z,98724.64
2022-12-10T01:52:12.580Z,98719.58
2022-12-10T01:54:46.794Z,98719.79
2022-12-10T01:57:27.187Z,98717.19
2022-12-10T02:00:02.741Z,98711.68
2022-12-10T02:02:49.835Z,98709.50
2022-12-10T02:05:23.647Z,98707.04
2022-12-10T02:08:05.466Z,98706.27
2022-12-10T02:10:48.741Z,98701.77
2022-12-10T02:13:29.980Z,98700.43
2022-12-10T02:16:13.568Z,98693.81
2022-12-10T02:18:52.914Z,98685.84
2022-12-10T02:21:27.277Z,98692.88
2022-12-10T02:24:01.004Z,98692.84
2022-12-10T02:26:47.757Z,98695.92
2022-12-10T02:29:25.665Z,98693.98
2022-12-10T02:32:00.986Z,98701.81
2022-12-10T02:34:32.894Z,98699.89
2022-12-10T02:37:07.821Z,98704.09
2022-12-10T02:39:44.042Z,98703.30
2022-12-10T02:42:13.772Z,98706.91
2022-12-10T02:44:45.666Z,98696.38
2022-12-10T02:47:16.752Z,98684.34
2022-12-10T02:49:53.997Z,98688.76
2022-12-10T02:52:23.901Z,98692.92
2022-12-10T02:54:54.096Z,98690.42
2022-12-10T02:57:58.904Z,98686.59
2022-12-10T03:00:27.281Z,98682.75
2022-12-10T03:03:24.077Z,98680.56
2022-12-10T03:06:04.135Z,98679.11
2022-12-10T03:08:50.098Z,98682.20
2022-12-10T03:11:22.560Z,98680.77
2022-12-10T03:14:14.970Z,98683.00
2022-12-10T03:16:47.608Z,98674.95
2022-12-10T03:19:19.844Z,98675.56
2022-12-10T03:21:50.233Z,98677.48
2022-12-10T03:24:19.403Z,98668.61
2022-12-10T03:26:51.007Z,98666.00
2022-12-10T03:29:25.701Z,98669.34
2022-12-10T03:31:54.992Z,98677.46
2022-12-10T03:34:23.821Z,98668.86
2022-12-10T03:36:53.022Z,98665.81
2022-12-10T03:39:21.399Z,98669.10
2022-12-10T03:41:49.292Z,98675.96
2022-12-10T03:44:32.092Z,98686.82
2022-12-10T03:47:00.362Z,98677.13
2022-12-10T03:49:28.397Z,98678.64
2022-12-10T03:51:56.804Z,98690.12
2022-12-10T03:54:24.664Z,98692.30
2022-12-10T03:56:53.047Z,98693.06
2022-12-10T03:59:21.094Z,98705.05
2022-12-10T04:01:49.706Z,98719.98
2022-12-10T04:04:17.925Z,98729.13
2022-12-10T04:06:46.256Z,98742.19
2022-12-10T04:09:15.704Z,98743.40
2022-12-10T04:11:44.958Z,98742.81
2022-12-10T04:14:32.634Z,98734.05
2022-12-10T04:17:00.939Z,98727.01
2022-12-10T04:19:29.033Z,98716.82
2022-12-10T04:22:15.657Z,98708.61
2022-12-10T04:25:02.244Z,98710.28
2022-12-10T04:27:33.739Z,98712.75
2022-12-10T04:30:02.175Z,98708.13
2022-12-10T04:32:30.862Z,98710.74
2022-12-10T04:34:58.728Z,98714.95
2022-12-10T04:37:27.926Z,98716.36
2022-12-10T04:39:56.276Z,98717.40
2022-12-10T04:42:24.117Z,98722.95
2022-12-10T04:44:52.238Z,98726.90
2022-12-10T04:47:20.618Z,98730.00
2022-12-10T04:49:48.688Z,98731.30
2022-12-10T04:52:18.047Z,98732.41
2022-12-10T04:54:46.267Z,98737.48
2022-12-10T04:57:15.370Z,98746.46
2022-12-10T04:59:43.428Z,98753.58
2022-12-10T05:02:11.838Z,98751.29
2022-12-10T05:04:39.919Z,98757.23
2022-12-10T05:07:08.156Z,98763.98
2022-12-10T05:09:36.091Z,98763.64
2022-12-10T05:12:05.331Z,98762.01
2022-12-10T05:14:33.514Z,98761.95
2022-12-10T05:17:01.667Z,98758.91
2022-12-10T05:19:29.605Z,98759.02
2022-12-10T05:22:16.143Z,98762.53
2022-12-10T05:24:44.016Z,98765.90
2022-12-10T05:27:12.179Z,98767.55
2022-12-10T05:29:39.972Z,98764.52
2022-12-10T05:32:08.116Z,98762.16
2022-12-10T05:34:36.131Z,98761.23
2022-12-10T05:37:03.951Z,98760.52
2022-12-10T05:39:31.749Z,98754.39
2022-12-10T05:41:59.472Z,98749.91
2022-12-10T05:44:27.437Z,98747.13
2022-12-10T05:46:55.300Z,98744.06
2022-12-10T05:49:23.250Z,98743.84
2022-12-10T05:51:51.256Z,98743.98
2022-12-10T05:54:19.116Z,98743.95
2022-12-10T05:56:47.062Z,98742.63
2022-12-10T05:59:17.167Z,98740.29
2022-12-10T06:01:45.333Z,98738.80
2022-12-10T06:04:14.616Z,98740.45
2022-12-10T06:06:43.058Z,98741.66
2022-12-10T06:09:14.091Z,98748.45
2022-12-10T06:11:42.473Z,98749.96
2022-12-10T06:14:11.655Z,98753.61
2022-12-10T06:16:40.972Z,98751.66
2022-12-10T06:19:08.816Z,98756.52
2022-12-10T06:21:36.775Z,98758.23
2022-12-10T06:24:04.919Z,98758.67
2022-12-10T06:26:32.951Z,98758.79
2022-12-10T06:29:01.529Z,98760.66
2022-12-10T06:31:29.658Z,98759.95
2022-12-10T06:33:57.779Z,98755.58
2022-12-10T06:36:25.742Z,98751.16
2022-12-10T06:38:53.734Z,98745.65
2022-12-10T06:41:21.784Z,98745.88
2022-12-10T06:43:49.957Z,98748.94
2022-12-10T06:46:20.544Z,98753.00
2022-12-10T06:48:48.659Z,98754.66
2022-12-10T06:51:18.506Z,98759.50
2022-12-10T06:53:47.260Z,98764.46
2022-12-10T06:56:19.890Z,98761.40
2022-12-10T06:58:49.032Z,98761.82
2022-12-10T07:01:21.074Z,98756.30
2022-12-10T07:03:50.845Z,98758.11
2022-12-10T07:06:20.720Z,98755.64
2022-12-10T07:08:51.459Z,98752.15
2022-12-10T07:11:22.522Z,98749.98
2022-12-10T07:13:51.300Z,98751.56
2022-12-10T07:16:22.385Z,98751.69
2022-12-10T07:18:52.773Z,98756.88
2022-12-10T07:21:22.664Z,98757.66
2022-12-10T07:23:52.109Z,98757.55
2022-12-10T07:26:20.755Z,98764.45
2022-12-10T07:28:53.044Z,98764.44
2022-12-10T07:31:23.130Z,98770.00
2022-12-10T07:33:52.857Z,98769.71
2022-12-10T07:36:23.709Z,98775.56
2022-12-10T07:38:52.419Z,98777.66
2022-12-10T07:41:21.661Z,98779.55
2022-12-10T07:43:50.263Z,98782.13
2022-12-10T07:46:20.948Z,98784.67
2022-12-10T07:48:50.119Z,98785.45
2022-12-10T07:51:21.618Z,98789.54
2022-12-10T07:53:53.595Z,98786.73
2022-12-10T07:56:23.498Z,98790.31
2022-12-10T07:58:53.405Z,98791.10
2022-12-10T08:01:24.512Z,98791.87
2022-12-10T08:03:54.804Z,98791.89
2022-12-10T08:06:23.785Z,98788.45
2022-12-10T08:08:51.893Z,98789.17
2022-12-10T08:11:21.803Z,98787.88
2022-12-10T08:13:55.132Z,98786.14
2022-12-10T08:16:28.427Z,98784.45
2022-12-10T08:18:57.335Z,98786.59
2022-12-10T08:21:28.280Z,98784.64
2022-12-10T08:23:56.056Z,98784.64
2022-12-10T08:26:27.211Z,98790.09
2022-12-10T08:28:56.385Z,98789.91
2022-12-10T08:31:26.374Z,98787.92
2022-12-10T08:33:54.589Z,98789.10
2022-12-10T08:36:23.032Z,98788.57
2022-12-10T08:38:51.339Z,98790.18
2022-12-10T08:41:22.176Z,98792.33
2022-12-10T08:43:53.257Z,98792.48
2022-12-10T08:46:22.416Z,98798.42
2022-12-10T08:48:50.377Z,98801.23
2022-12-10T08:51:20.293Z,98802.38
2022-12-10T08:53:48.575Z,98809.27
2022-12-10T08:56:16.641Z,98816.75
2022-12-10T08:58:44.606Z,98813.89
2022-12-10T09:01:16.077Z,98812.17
2022-12-10T09:03:45.130Z,98808.94
2022-12-10T09:06:19.697Z,98813.90
2022-12-10T09:08:48.472Z,98812.69
2022-12-10T09:11:20.874Z,98814.24
2022-12-10T09:13:49.320Z,98811.55
2022-12-10T09:16:17.628Z,98808.95
2022-12-10T09:18:45.728Z,98812.61
2022-12-10T09:21:18.262Z,98810.81
2022-12-10T09:23:46.106Z,98806.75
2022-12-10T09:26:16.425Z,98802.63
2022-12-10T09:28:45.624Z,98798.32
2022-12-10T09:31:19.171Z,98794.54
2022-12-10T09:33:50.958Z,98794.34
2022-12-10T09:36:20.657Z,98790.28
2022-12-10T09:38:49.732Z,98784.28
2022-12-10T09:41:32.921Z,98775.59
2022-12-10T09:44:12.554Z,98769.20
2022-12-10T09:46:51.991Z,98767.38
2022-12-10T09:49:28.863Z,98763.45
2022-12-10T09:52:00.598Z,98759.75
2022-12-10T09:54:35.968Z,98757.60
2022-12-10T09:57:06.576Z,98749.50
2022-12-10T09:59:43.586Z,98747.45
2022-12-10T10:02:21.057Z,98741.90
2022-12-10T10:04:55.424Z,98730.94
2022-12-10T10:07:29.869Z,98724.29
2022-12-10T10:10:02.322Z,98720.05
2022-12-10T10:12:32.504Z,98716.50
2022-12-10T10:15:11.529Z,98718.35
2022-12-10T10:17:40.420Z,98712.33
2022-12-10T10:20:09.007Z,98712.12
2022-12-10T10:22:37.209Z,98706.88
2022-12-10T10:25:07.100Z,98706.71
2022-12-10T10:27:34.929Z,98701.16
2022-12-10T10:30:05.647Z,98695.80
2022-12-10T10:32:36.631Z,98692.31
2022-12-10T10:35:06.047Z,98688.02
2022-12-10T10:37:36.965Z,98685.65
2022-12-10T10:40:05.313Z,98678.09
2022-12-10T10:42:37.735Z,98679.38
2022-12-10T10:45:27.295Z,98678.55
2022-12-10T10:48:15.597Z,98675.25
2022-12-10T10:50:50.020Z,98670.48
2022-12-10T10:53:22.636Z,98670.52
2022-12-10T10:55:51.513Z,98671.63
2022-12-10T10:58:24.105Z,98667.92
2022-12-10T11:01:04.139Z,98664.36
2022-12-10T11:03:36.086Z,98662.42
2022-12-10T11:06:08.444Z,98662.82
2022-12-10T11:08:40.189Z,98664.61
2022-12-10T11:11:18.559Z,98663.45
2022-12-10T11:13:46.837Z,98669.20
2022-12-10T11:16:26.100Z,98668.55
2022-12-10T11:18:57.517Z,98666.33
2022-12-10T11:21:26.078Z,98665.10
2022-12-10T11:23:55.296Z,98664.85
2022-12-10T11:26:51.938Z,98663.69
2022-12-10T11:29:48.523Z,98659.23
2022-12-10T11:32:22.488Z,98654.56
2022-12-10T11:35:22.719Z,98652.60
2022-12-10T11:37:57.481Z,98650.64
2022-12-10T11:40:47.933Z,98648.08
2022-12-10T11:43:46.497Z,98645.09
2022-12-10T11:46:39.678Z,98643.27
2022-12-10T11:49:28.537Z,98642.61
2022-12-10T11:52:12.788Z,98641.48
2022-12-10T11:55:15.942Z,98641.52
2022-12-10T11:58:02.082Z,98637.30
2022-12-10T12:00:43.146Z,98636.30
2022-12-10T12:03:30.356Z,98630.48
2022-12-10T12:06:08.146Z,98624.35
2022-12-10T12:08:55.083Z,98618.05
2022-12-10T12:11:49.062Z,98609.35
2022-12-10T12:14:40.993Z,98607.92
2022-12-10T12:17:18.074Z,98603.71
2022-12-10T12:19:52.848Z,98598.13
2022-12-10T12:22:30.869Z,98598.46
2022-12-10T12:25:09.411Z,98593.86
2022-12-10T12:27:44.523Z,98585.79
2022-12-10T12:30:21.295Z,98585.34
2022-12-10T12:33:36.395Z,98583.06
2022-12-10T12:36:12.504Z,98577.02
2022-12-10T12:38:56.879Z,98572.72
2022-12-10T12:41:32.816Z,98568.58
2022-12-10T12:44:10.343Z,98560.57
2022-12-10T12:46:47.277Z,98555.15
2022-12-10T12:49:23.663Z,98554.45
2022-12-10T12:52:11.490Z,98558.45
2022-12-10T12:54:41.587Z,98556.36
2022-12-10T12:57:37.386Z,98551.84
2022-12-10T13:00:12.934Z,98547.85
2022-12-10T13:02:56.289Z,98542.52
2022-12-10T13:05:33.748Z,98541.48
2022-12-10T13:08:30.136Z,98544.38
2022-12-10T13:10:58.015Z,98545.06
2022-12-10T13:13:28.795Z,98547.59
2022-12-10T13:15:56.697Z,98548.98
2022-12-10T13:18:37.283Z,98546.25
2022-12-10T13:21:17.442Z,98547.51
2022-12-10T13:23:53.645Z,98545.41
2022-12-10T13:26:31.073Z,98549.91
2022-12-10T13:29:26.335Z,98550.16
2022-12-10T13:32:02.089Z,98548.17
2022-12-10T13:34:38.272Z,98542.52
2022-12-10T13:37:32.125Z,98532.44
2022-12-10T13:40:09.442Z,98534.06
2022-12-10T13:42:58.607Z,98534.52
2022-12-10T13:45:30.676Z,98536.71
2022-12-10T13:48:17.114Z,98534.32
2022-12-10T13:50:54.143Z,98533.23
2022-12-10T13:53:42.177Z,98526.20
2022-12-10T13:56:31.750Z,98520.29
2022-12-10T13:59:05.544Z,98509.66
2022-12-10T14:01:51.703Z,98501.98
2022-12-10T14:04:40.801Z,98499.41
2022-12-10T14:07:13.936Z,98493.49
2022-12-10T14:09:50.976Z,98496.90
2022-12-10T14:12:34.099Z,98497.48
2022-12-10T14:15:27.253Z,98484.23
2022-12-10T14:18:12.733Z,98479.12
2022-12-10T14:20:47.458Z,98473.62
2022-12-10T14:23:33.862Z,98469.77
2022-12-10T14:26:06.743Z,98464.41
2022-12-10T14:28:39.934Z,98464.91
2022-12-10T14:31:14.960Z,98461.23
2022-12-10T14:33:47.820Z,98454.54
2022-12-10T14:36:27.789Z,98442.88
2022-12-10T14:38:57.206Z,98434.31
2022-12-10T14:41:27.171Z,98432.33
2022-12-10T14:43:55.804Z,98431.88
2022-12-10T14:46:29.602Z,98427.20
2022-12-10T14:48:57.700Z,98428.17
2022-12-10T14:51:32.734Z,98424.42
2022-12-10T14:54:00.695Z,98424.33
2022-12-10T14:56:35.342Z,98419.92
2022-12-10T14:59:17.306Z,98417.79
2022-12-10T15:01:50.254Z,98415.85
2022-12-10T15:04:26.191Z,98417.45
2022-12-10T15:07:01.893Z,98414.11
2022-12-10T15:09:30.174Z,98404.89
2022-12-10T15:12:00.594Z,98400.65
2022-12-10T15:14:31.040Z,98397.73
2022-12-10T15:17:02.965Z,98398.71
2022-12-10T15:19:32.589Z,98396.68
2022-12-10T15:22:15.910Z,98395.73
2022-12-10T15:24:44.374Z,98391.48
2022-12-10T15:27:24.201Z,98385.52
2022-12-10T15:29:53.014Z,98380.35
2022-12-10T15:32:27.787Z,98379.20
2022-12-10T15:34:59.498Z,98373.09
2022-12-10T15:37:34.884Z,98362.76
2022-12-10T15:40:08.957Z,98353.11
2022-12-10T15:42:43.582Z,98353.27
2022-12-10T15:45:17.815Z,98354.20
2022-12-10T15:47:46.095Z,98353.17
2022-12-10T15:50:14.588Z,98344.31
2022-12-10T15:52:43.273Z,98337.52
2022-12-10T15:55:12.712Z,98336.19
2022-12-10T15:57:45.917Z,98330.11
2022-12-10T16:00:21.088Z,98323.08
2022-12-10T16:02:59.708Z,98318.66
2022-12-10T16:05:30.705Z,98310.52
2022-12-10T16:08:12.272Z,98302.31
2022-12-10T16:10:40.825Z,98297.91
2022-12-10T16:13:16.428Z,98300.05
2022-12-10T16:15:51.644Z,98297.06
2022-12-10T16:18:20.192Z,98294.14
2022-12-10T16:20:48.057Z,98291.17
2022-12-10T16:23:16.118Z,98283.63
2022-12-10T16:25:45.331Z,98281.86
2022-12-10T16:28:18.409Z,98281.95
2022-12-10T16:30:54.931Z,98273.27
2022-12-10T16:33:25.369Z,98271.55
2022-12-10T16:35:54.383Z,98266.98
2022-12-10T16:38:22.685Z,98263.52
2022-12-10T16:40:50.927Z,98258.06
2022-12-10T16:43:26.131Z,98256.48
2022-12-10T16:45:55.430Z,98253.63
2022-12-10T16:48:23.468Z,98248.70
2022-12-10T16:50:53.455Z,98245.08
2022-12-10T16:53:27.485Z,98239.45
2022-12-10T16:55:57.484Z,98241.93
2022-12-10T16:58:25.941Z,98244.21
2022-12-10T17:00:55.581Z,98245.23
2022-12-10T17:03:29.715Z,98236.98
2022-12-10T17:06:00.493Z,98232.45
2022-12-10T17:08:29.660Z,98231.96
2022-12-10T17:11:17.306Z,98231.15
2022-12-10T17:13:46.009Z,98236.88
2022-12-10T17:16:19.746Z,98232.54
2022-12-10T17:18:47.748Z,98231.59
2022-12-10T17:21:15.606Z,98231.78
2022-12-10T17:23:43.760Z,98229.63
2022-12-10T17:26:27.444Z,98229.02
2022-12-10T17:29:02.239Z,98225.06
2022-12-10T17:31:31.114Z,98225.54
2022-12-10T17:33:59.547Z,98232.48
2022-12-10T17:36:28.123Z,98236.93
2022-12-10T17:38:56.296Z,98239.29
2022-12-10T17:41:24.478Z,98241.28
2022-12-10T17:43:52.257Z,98241.17
2022-12-10T17:46:24.657Z,98239.88
2022-12-10T17:48:54.120Z,98239.58
2022-12-10T17:51:23.547Z,98235.66
2022-12-10T17:53:51.397Z,98235.53
2022-12-10T17:56:25.143Z,98234.33
2022-12-10T17:58:53.202Z,98236.41
2022-12-10T18:01:23.518Z,98244.04
2022-12-10T18:03:51.798Z,98245.27
2022-12-10T18:06:24.689Z,98250.96
2022-12-10T18:08:54.621Z,98251.50
2022-12-10T18:11:31.189Z,98249.27
2022-12-10T18:13:59.221Z,98246.21
2022-12-10T18:16:32.253Z,98244.50
2022-12-10T18:19:05.509Z,98242.89
2022-12-10T18:21:37.718Z,98235.71
2022-12-10T18:24:06.053Z,98227.09
2022-12-10T18:26:34.991Z,98216.94
2022-12-10T18:29:04.469Z,98211.83
2022-12-10T18:31:35.477Z,98215.52
2022-12-10T18:34:05.010Z,98212.59
2022-12-10T18:36:36.079Z,98217.57
2022-12-10T18:39:07.958Z,98210.27
2022-12-10T18:41:36.600Z,98206.77
2022-12-10T18:44:04.893Z,98198.80
2022-12-10T18:46:36.481Z,98191.13
2022-12-10T18:49:05.077Z,98188.08
2022-12-10T18:51:33.060Z,98188.65
2022-12-10T18:54:01.206Z,98184.88
2022-12-10T18:56:33.198Z,98185.01
2022-12-10T18:59:01.526Z,98185.89
2022-12-10T19:01:30.981Z,98182.73
2022-12-10T19:03:59.280Z,98182.29
2022-12-10T19:06:29.213Z,98183.30
2022-12-10T19:09:17.688Z,98174.15
2022-12-10T19:11:47.887Z,98166.48
2022-12-10T19:14:16.649Z,98164.88
2022-12-10T19:16:45.647Z,98160.21
2022-12-10T19:19:15.701Z,98158.40
2022-12-10T19:21:44.952Z,98151.39
2022-12-10T19:24:14.051Z,98145.02
2022-12-10T19:26:43.831Z,98140.67
2022-12-10T19:29:20.842Z,98134.30
2022-12-10T19:31:50.850Z,98126.92
2022-12-10T19:34:20.513Z,98123.42
2022-12-10T19:36:50.176Z,98124.23
2022-12-10T19:39:25.230Z,98125.04
2022-12-10T19:41:55.254Z,98120.49
2022-12-10T19:44:23.290Z,98114.98
2022-12-10T19:46:51.567Z,98114.80
2022-12-10T19:49:20.142Z,98117.39
2022-12-10T19:51:49.016Z,98115.98
2022-12-10T19:54:17.423Z,98112.97
2022-12-10T19:56:46.121Z,98106.16
2022-12-10T19:59:19.692Z,98098.79
2022-12-10T20:01:48.608Z,98095.17
2022-12-10T20:04:17.984Z,98100.33
2022-12-10T20:06:48.507Z,98102.83
2022-12-10T20:09:19.777Z,98095.48
2022-12-10T20:11:48.159Z,98097.72
2022-12-10T20:14:17.375Z,98093.55
2022-12-10T20:16:46.533Z,98088.40
2022-12-10T20:19:16.235Z,98091.39
2022-12-10T20:21:44.479Z,98082.15
2022-12-10T20:24:14.948Z,98083.16
2022-12-10T20:26:45.707Z,98077.26
2022-12-10T20:29:20.090Z,98074.46
2022-12-10T20:31:49.409Z,98068.76
2022-12-10T20:34:18.169Z,98061.09
2022-12-10T20:36:46.796Z,98057.73
2022-12-10T20:39:21.905Z,98053.81
2022-12-10T20:41:50.957Z,98050.66
2022-12-10T20:44:19.905Z,98047.09
2022-12-10T20:46:48.872Z,98042.50
2022-12-10T20:49:19.810Z,98036.88
2022-12-10T20:51:48.372Z,98039.51
2022-12-10T20:54:16.741Z,98029.42
2022-12-10T20:56:44.732Z,98022.15
2022-12-10T20:59:14.837Z,98022.94
2022-12-10T21:01:43.059Z,98020.30
2022-12-10T21:04:12.081Z,98022.71
2022-12-10T21:06:43.305Z,98021.46
2022-12-10T21:09:12.399Z,98011.56
2022-12-10T21:11:40.946Z,98005.56
2022-12-10T21:14:18.452Z,98003.59
2022-12-10T21:16:58.864Z,97993.05
2022-12-10T21:19:28.021Z,97990.38
2022-12-10T21:21:56.345Z,97984.55
2022-12-10T21:24:24.945Z,97982.34
2022-12-10T21:26:52.760Z,97977.95
2022-12-10T21:29:21.328Z,97978.13
2022-12-10T21:31:49.246Z,97975.41
2022-12-10T21:34:17.085Z,97972.89
2022-12-10T21:36:44.981Z,97969.09
2022-12-10T21:39:12.845Z,97958.66
2022-12-10T21:42:02.726Z,97949.11
2022-12-10T21:44:32.841Z,97950.02
2022-12-10T21:47:00.965Z,97946.05
2022-12-10T21:49:29.049Z,97943.08
2022-12-10T21:51:57.278Z,97940.27
2022-12-10T21:54:25.169Z,97939.23
2022-12-10T21:56:53.153Z,97932.48
2022-12-10T21:59:21.323Z,97932.33
2022-12-10T22:01:49.465Z,97928.79
2022-12-10T22:04:17.938Z,97918.79
2022-12-10T22:06:46.154Z,97910.04
2022-12-10T22:09:14.223Z,97903.67
2022-12-10T22:11:42.596Z,97895.02
2022-12-10T22:14:10.781Z,97899.27
2022-12-10T22:16:42.397Z,97890.07
2022-12-10T22:19:12.850Z,97879.22
2022-12-10T22:21:40.778Z,97875.15
2022-12-10T22:24:08.744Z,97866.98
2022-12-10T22:26:36.654Z,97857.41
2022-12-10T22:29:04.626Z,97851.34
2022-12-10T22:31:32.741Z,97846.27
2022-12-10T22:34:00.766Z,97842.89
2022-12-10T22:36:28.634Z,97839.70
2022-12-10T22:38:56.608Z,97838.27
2022-12-10T22:41:24.572Z,97832.52
2022-12-10T22:43:52.900Z,97825.33
2022-12-10T22:46:21.686Z,97818.91
2022-12-10T22:48:50.143Z,97817.63
2022-12-10T22:51:18.326Z,97817.50
2022-12-10T22:53:46.862Z,97814.85
2022-12-10T22:56:15.675Z,97809.50
2022-12-10T22:58:44.143Z,97797.95
2022-12-10T23:01:19.163Z,97790.00
2022-12-10T23:03:49.438Z,97784.10
2022-12-10T23:06:18.204Z,97779.60
2022-12-10T23:08:46.661Z,97774.27
2022-12-10T23:11:16.274Z,97768.05
2022-12-10T23:13:45.000Z,97762.93
2022-12-10T23:16:17.309Z,97762.15
2022-12-10T23:18:50.201Z,97749.10
2022-12-10T23:21:27.134Z,97743.72
2022-12-10T23:23:55.076Z,97745.58
2022-12-10T23:26:22.856Z,97742.77
2022-12-10T23:28:50.954Z,97737.66
2022-12-10T23:31:20.131Z,97724.35
2022-12-10T23:33:48.153Z,97718.22
2022-12-10T23:36:16.244Z,97722.51
2022-12-10T23:38:44.364Z,97717.08
2022-12-10T23:41:12.540Z,97713.63
2022-12-10T23:43:40.830Z,97704.51
2022-12-10T23:46:09.360Z,97704.47
2022-12-10T23:48:37.682Z,97702.97
2022-12-10T23:51:06.409Z,97709.91
2022-12-10T23:53:34.509Z,97715.96
2022-12-10T23:56:15.556Z,97718.89
2022-12-10T23:58:44.445Z,97713.59
